sensor_id;sensor_type;location;lat;lon;timestamp;P1;durP1;ratioP1;P2;durP2;ratioP2
29916;SDS011;16786;49.466;11.068;2023-05-10T00:00:11;11.52;;;9.20;;
29916;SDS011;16786;49.466;11.068;2023-05-10T00:02:39;10.90;;;9.63;;
29916;SDS011;16786;49.466;11.068;2023-05-10T00:05:07;12.27;;;9.50;;
29916;SDS011;16786;49.466;11.068;2023-05-10T00:07:35;10.45;;;9.35;;
29916;SDS011;16786;49.466;11.068;2023-05-10T00:10:02;10.30;;;9.20;;
29916;SDS011;16786;49.466;11.068;2023-05-10T00:12:30;10.82;;;9.23;;
29916;SDS011;16786;49.466;11.068;2023-05-10T00:14:57;11.88;;;9.43;;
29916;SDS011;16786;49.466;11.068;2023-05-10T00:17:24;11.35;;;9.55;;
29916;SDS011;16786;49.466;11.068;2023-05-10T00:19:52;11.38;;;9.90;;
29916;SDS011;16786;49.466;11.068;2023-05-10T00:22:19;11.23;;;9.57;;
29916;SDS011;16786;49.466;11.068;2023-05-10T00:24:47;12.13;;;9.45;;
29916;SDS011;16786;49.466;11.068;2023-05-10T00:27:14;11.60;;;9.48;;
29916;SDS011;16786;49.466;11.068;2023-05-10T00:29:41;11.98;;;9.70;;
29916;SDS011;16786;49.466;11.068;2023-05-10T00:32:09;10.82;;;9.32;;
29916;SDS011;16786;49.466;11.068;2023-05-10T00:34:36;12.40;;;9.45;;
29916;SDS011;16786;49.466;11.068;2023-05-10T00:37:04;10.95;;;9.07;;
29916;SDS011;16786;49.466;11.068;2023-05-10T00:39:33;10.95;;;9.45;;
29916;SDS011;16786;49.466;11.068;2023-05-10T00:42:01;12.95;;;8.80;;
29916;SDS011;16786;49.466;11.068;2023-05-10T00:44:28;11.25;;;9.20;;
29916;SDS011;16786;49.466;11.068;2023-05-10T00:46:57;12.20;;;9.85;;
29916;SDS011;16786;49.466;11.068;2023-05-10T00:49:25;12.35;;;9.13;;
29916;SDS011;16786;49.466;11.068;2023-05-10T00:51:53;12.75;;;9.40;;
29916;SDS011;16786;49.466;11.068;2023-05-10T00:54:20;12.10;;;10.45;;
29916;SDS011;16786;49.466;11.068;2023-05-10T00:56:50;12.40;;;9.77;;
29916;SDS011;16786;49.466;11.068;2023-05-10T00:59:19;11.38;;;9.32;;
29916;SDS011;16786;49.466;11.068;2023-05-10T01:01:47;12.05;;;8.18;;
29916;SDS011;16786;49.466;11.068;2023-05-10T01:04:15;12.75;;;8.88;;
29916;SDS011;16786;49.466;11.068;2023-05-10T01:06:42;11.15;;;9.07;;
29916;SDS011;16786;49.466;11.068;2023-05-10T01:09:10;10.23;;;7.90;;
29916;SDS011;16786;49.466;11.068;2023-05-10T01:11:38;12.38;;;8.00;;
29916;SDS011;16786;49.466;11.068;2023-05-10T01:14:06;12.18;;;8.25;;
29916;SDS011;16786;49.466;11.068;2023-05-10T01:16:36;10.40;;;7.75;;
29916;SDS011;16786;49.466;11.068;2023-05-10T01:19:39;9.30;;;7.60;;
29916;SDS011;16786;49.466;11.068;2023-05-10T01:25:11;10.35;;;7.82;;
29916;SDS011;16786;49.466;11.068;2023-05-10T01:31:02;9.02;;;7.00;;
29916;SDS011;16786;49.466;11.068;2023-05-10T01:33:52;9.43;;;7.70;;
29916;SDS011;16786;49.466;11.068;2023-05-10T01:36:37;10.88;;;7.25;;
29916;SDS011;16786;49.466;11.068;2023-05-10T01:39:11;8.85;;;7.20;;
29916;SDS011;16786;49.466;11.068;2023-05-10T01:41:51;9.45;;;6.80;;
29916;SDS011;16786;49.466;11.068;2023-05-10T01:47:06;9.48;;;7.20;;
29916;SDS011;16786;49.466;11.068;2023-05-10T01:49:41;9.00;;;7.03;;
29916;SDS011;16786;49.466;11.068;2023-05-10T01:52:14;10.43;;;7.50;;
29916;SDS011;16786;49.466;11.068;2023-05-10T01:54:49;9.95;;;7.38;;
29916;SDS011;16786;49.466;11.068;2023-05-10T01:57:21;11.60;;;7.18;;
29916;SDS011;16786;49.466;11.068;2023-05-10T01:59:52;12.15;;;8.02;;
29916;SDS011;16786;49.466;11.068;2023-05-10T02:02:20;8.88;;;7.18;;
29916;SDS011;16786;49.466;11.068;2023-05-10T02:04:49;9.27;;;6.95;;
29916;SDS011;16786;49.466;11.068;2023-05-10T02:07:18;9.63;;;7.25;;
29916;SDS011;16786;49.466;11.068;2023-05-10T02:09:46;9.75;;;7.68;;
29916;SDS011;16786;49.466;11.068;2023-05-10T02:12:14;9.30;;;7.38;;
29916;SDS011;16786;49.466;11.068;2023-05-10T02:14:42;9.13;;;7.22;;
29916;SDS011;16786;49.466;11.068;2023-05-10T02:17:11;8.50;;;6.30;;
29916;SDS011;16786;49.466;11.068;2023-05-10T02:19:40;8.18;;;6.30;;
29916;SDS011;16786;49.466;11.068;2023-05-10T02:22:09;9.05;;;6.65;;
29916;SDS011;16786;49.466;11.068;2023-05-10T02:24:38;10.10;;;6.78;;
29916;SDS011;16786;49.466;11.068;2023-05-10T02:27:06;10.70;;;6.93;;
29916;SDS011;16786;49.466;11.068;2023-05-10T02:29:36;10.13;;;6.53;;
29916;SDS011;16786;49.466;11.068;2023-05-10T02:32:04;9.77;;;6.60;;
29916;SDS011;16786;49.466;11.068;2023-05-10T02:34:32;7.47;;;5.50;;
29916;SDS011;16786;49.466;11.068;2023-05-10T02:37:00;7.50;;;5.63;;
29916;SDS011;16786;49.466;11.068;2023-05-10T02:39:31;7.05;;;5.63;;
29916;SDS011;16786;49.466;11.068;2023-05-10T02:41:59;7.93;;;5.50;;
29916;SDS011;16786;49.466;11.068;2023-05-10T02:44:28;7.38;;;5.40;;
29916;SDS011;16786;49.466;11.068;2023-05-10T02:46:57;6.68;;;5.00;;
29916;SDS011;16786;49.466;11.068;2023-05-10T02:49:25;7.90;;;5.43;;
29916;SDS011;16786;49.466;11.068;2023-05-10T02:51:56;7.10;;;4.88;;
29916;SDS011;16786;49.466;11.068;2023-05-10T02:54:29;6.45;;;3.88;;
29916;SDS011;16786;49.466;11.068;2023-05-10T02:57:08;6.85;;;4.65;;
29916;SDS011;16786;49.466;11.068;2023-05-10T02:59:41;7.00;;;4.60;;
29916;SDS011;16786;49.466;11.068;2023-05-10T03:02:09;6.28;;;4.40;;
29916;SDS011;16786;49.466;11.068;2023-05-10T03:04:37;4.80;;;3.30;;
29916;SDS011;16786;49.466;11.068;2023-05-10T03:07:04;6.70;;;4.15;;
29916;SDS011;16786;49.466;11.068;2023-05-10T03:09:32;5.85;;;4.03;;
29916;SDS011;16786;49.466;11.068;2023-05-10T03:17:25;4.18;;;2.60;;
29916;SDS011;16786;49.466;11.068;2023-05-10T03:20:08;4.07;;;2.53;;
29916;SDS011;16786;49.466;11.068;2023-05-10T03:22:40;7.57;;;2.83;;
29916;SDS011;16786;49.466;11.068;2023-05-10T03:25:13;6.75;;;3.40;;
29916;SDS011;16786;49.466;11.068;2023-05-10T03:27:43;5.03;;;3.17;;
29916;SDS011;16786;49.466;11.068;2023-05-10T03:30:12;4.57;;;3.08;;
29916;SDS011;16786;49.466;11.068;2023-05-10T03:32:40;5.85;;;3.40;;
29916;SDS011;16786;49.466;11.068;2023-05-10T03:35:08;4.13;;;2.85;;
29916;SDS011;16786;49.466;11.068;2023-05-10T03:37:36;4.40;;;2.45;;
29916;SDS011;16786;49.466;11.068;2023-05-10T03:40:04;4.63;;;2.20;;
29916;SDS011;16786;49.466;11.068;2023-05-10T03:42:35;3.55;;;2.30;;
29916;SDS011;16786;49.466;11.068;2023-05-10T03:45:02;4.88;;;2.25;;
29916;SDS011;16786;49.466;11.068;2023-05-10T03:47:30;3.33;;;2.00;;
29916;SDS011;16786;49.466;11.068;2023-05-10T03:49:58;3.75;;;1.77;;
29916;SDS011;16786;49.466;11.068;2023-05-10T03:52:25;2.45;;;1.60;;
29916;SDS011;16786;49.466;11.068;2023-05-10T03:54:53;2.88;;;1.48;;
29916;SDS011;16786;49.466;11.068;2023-05-10T03:57:20;3.17;;;1.23;;
29916;SDS011;16786;49.466;11.068;2023-05-10T03:59:47;3.15;;;1.30;;
29916;SDS011;16786;49.466;11.068;2023-05-10T04:02:14;3.70;;;1.60;;
29916;SDS011;16786;49.466;11.068;2023-05-10T04:04:42;2.58;;;1.38;;
29916;SDS011;16786;49.466;11.068;2023-05-10T04:07:09;2.13;;;1.27;;
29916;SDS011;16786;49.466;11.068;2023-05-10T04:09:37;2.50;;;1.60;;
29916;SDS011;16786;49.466;11.068;2023-05-10T04:12:04;3.20;;;1.48;;
29916;SDS011;16786;49.466;11.068;2023-05-10T04:14:34;5.03;;;1.15;;
29916;SDS011;16786;49.466;11.068;2023-05-10T04:17:01;3.03;;;1.10;;
29916;SDS011;16786;49.466;11.068;2023-05-10T04:19:29;1.65;;;1.20;;
29916;SDS011;16786;49.466;11.068;2023-05-10T04:21:58;1.45;;;0.90;;
29916;SDS011;16786;49.466;11.068;2023-05-10T04:24:25;1.48;;;1.10;;
29916;SDS011;16786;49.466;11.068;2023-05-10T04:26:53;1.65;;;1.00;;
29916;SDS011;16786;49.466;11.068;2023-05-10T04:29:23;2.03;;;1.10;;
29916;SDS011;16786;49.466;11.068;2023-05-10T04:31:50;1.95;;;1.20;;
29916;SDS011;16786;49.466;11.068;2023-05-10T04:34:18;1.73;;;0.90;;
29916;SDS011;16786;49.466;11.068;2023-05-10T04:36:47;1.27;;;0.93;;
29916;SDS011;16786;49.466;11.068;2023-05-10T04:39:14;1.95;;;1.10;;
29916;SDS011;16786;49.466;11.068;2023-05-10T04:41:41;1.63;;;1.00;;
29916;SDS011;16786;49.466;11.068;2023-05-10T04:44:09;2.30;;;1.10;;
29916;SDS011;16786;49.466;11.068;2023-05-10T04:46:36;2.30;;;1.20;;
29916;SDS011;16786;49.466;11.068;2023-05-10T04:49:03;2.70;;;1.20;;
29916;SDS011;16786;49.466;11.068;2023-05-10T04:51:30;1.80;;;1.10;;
29916;SDS011;16786;49.466;11.068;2023-05-10T04:53:58;4.05;;;1.10;;
29916;SDS011;16786;49.466;11.068;2023-05-10T04:56:32;2.80;;;1.50;;
29916;SDS011;16786;49.466;11.068;2023-05-10T04:59:00;2.83;;;1.00;;
29916;SDS011;16786;49.466;11.068;2023-05-10T05:01:27;3.90;;;1.30;;
29916;SDS011;16786;49.466;11.068;2023-05-10T05:03:54;1.50;;;1.13;;
29916;SDS011;16786;49.466;11.068;2023-05-10T05:06:22;1.75;;;1.10;;
29916;SDS011;16786;49.466;11.068;2023-05-10T05:08:51;3.50;;;1.80;;
29916;SDS011;16786;49.466;11.068;2023-05-10T05:11:18;1.65;;;1.10;;
29916;SDS011;16786;49.466;11.068;2023-05-10T05:13:46;4.93;;;1.65;;
29916;SDS011;16786;49.466;11.068;2023-05-10T05:16:13;1.50;;;1.10;;
29916;SDS011;16786;49.466;11.068;2023-05-10T05:18:40;1.98;;;1.10;;
29916;SDS011;16786;49.466;11.068;2023-05-10T05:21:14;1.38;;;1.13;;
29916;SDS011;16786;49.466;11.068;2023-05-10T05:23:42;1.90;;;1.20;;
29916;SDS011;16786;49.466;11.068;2023-05-10T05:26:10;2.03;;;1.10;;
29916;SDS011;16786;49.466;11.068;2023-05-10T05:28:37;2.08;;;1.30;;
29916;SDS011;16786;49.466;11.068;2023-05-10T05:31:05;3.70;;;1.27;;
29916;SDS011;16786;49.466;11.068;2023-05-10T05:33:36;1.92;;;1.17;;
29916;SDS011;16786;49.466;11.068;2023-05-10T05:36:04;1.75;;;1.30;;
29916;SDS011;16786;49.466;11.068;2023-05-10T05:38:32;2.92;;;1.50;;
29916;SDS011;16786;49.466;11.068;2023-05-10T05:40:59;3.20;;;1.52;;
29916;SDS011;16786;49.466;11.068;2023-05-10T05:43:26;3.17;;;1.50;;
29916;SDS011;16786;49.466;11.068;2023-05-10T05:45:54;2.83;;;1.60;;
29916;SDS011;16786;49.466;11.068;2023-05-10T05:48:22;2.47;;;1.40;;
29916;SDS011;16786;49.466;11.068;2023-05-10T05:50:50;4.00;;;1.45;;
29916;SDS011;16786;49.466;11.068;2023-05-10T05:53:20;3.80;;;1.55;;
29916;SDS011;16786;49.466;11.068;2023-05-10T05:55:51;3.15;;;1.67;;
29916;SDS011;16786;49.466;11.068;2023-05-10T05:58:22;6.55;;;1.60;;
29916;SDS011;16786;49.466;11.068;2023-05-10T06:00:50;2.53;;;1.48;;
29916;SDS011;16786;49.466;11.068;2023-05-10T06:03:21;2.58;;;1.73;;
29916;SDS011;16786;49.466;11.068;2023-05-10T06:05:48;3.60;;;1.65;;
29916;SDS011;16786;49.466;11.068;2023-05-10T06:08:16;3.80;;;1.55;;
29916;SDS011;16786;49.466;11.068;2023-05-10T06:10:43;4.20;;;2.17;;
29916;SDS011;16786;49.466;11.068;2023-05-10T06:13:11;3.30;;;1.70;;
29916;SDS011;16786;49.466;11.068;2023-05-10T06:15:38;3.63;;;1.80;;
29916;SDS011;16786;49.466;11.068;2023-05-10T06:18:06;4.25;;;1.77;;
29916;SDS011;16786;49.466;11.068;2023-05-10T06:20:33;3.83;;;1.80;;
29916;SDS011;16786;49.466;11.068;2023-05-10T06:23:00;2.55;;;1.65;;
29916;SDS011;16786;49.466;11.068;2023-05-10T06:25:28;2.30;;;1.70;;
29916;SDS011;16786;49.466;11.068;2023-05-10T06:27:55;3.55;;;2.20;;
29916;SDS011;16786;49.466;11.068;2023-05-10T06:30:24;3.55;;;2.10;;
29916;SDS011;16786;49.466;11.068;2023-05-10T06:32:56;7.55;;;1.80;;
29916;SDS011;16786;49.466;11.068;2023-05-10T06:35:23;5.00;;;2.00;;
29916;SDS011;16786;49.466;11.068;2023-05-10T06:37:51;4.57;;;2.13;;
29916;SDS011;16786;49.466;11.068;2023-05-10T06:40:18;3.40;;;2.13;;
29916;SDS011;16786;49.466;11.068;2023-05-10T06:42:46;2.88;;;1.90;;
29916;SDS011;16786;49.466;11.068;2023-05-10T06:45:14;2.80;;;1.88;;
29916;SDS011;16786;49.466;11.068;2023-05-10T06:47:43;4.28;;;2.00;;
29916;SDS011;16786;49.466;11.068;2023-05-10T06:50:10;5.70;;;2.40;;
29916;SDS011;16786;49.466;11.068;2023-05-10T06:52:38;4.00;;;2.05;;
29916;SDS011;16786;49.466;11.068;2023-05-10T06:55:05;3.42;;;2.13;;
29916;SDS011;16786;49.466;11.068;2023-05-10T06:57:33;3.40;;;1.90;;
29916;SDS011;16786;49.466;11.068;2023-05-10T07:00:01;3.30;;;2.00;;
29916;SDS011;16786;49.466;11.068;2023-05-10T07:02:31;4.55;;;2.22;;
29916;SDS011;16786;49.466;11.068;2023-05-10T07:04:58;4.10;;;2.00;;
29916;SDS011;16786;49.466;11.068;2023-05-10T07:07:29;2.50;;;1.73;;
29916;SDS011;16786;49.466;11.068;2023-05-10T07:09:56;2.67;;;1.70;;
29916;SDS011;16786;49.466;11.068;2023-05-10T07:12:24;3.40;;;1.95;;
29916;SDS011;16786;49.466;11.068;2023-05-10T07:14:52;2.35;;;1.70;;
29916;SDS011;16786;49.466;11.068;2023-05-10T07:17:19;3.22;;;1.83;;
29916;SDS011;16786;49.466;11.068;2023-05-10T07:19:46;6.25;;;2.22;;
29916;SDS011;16786;49.466;11.068;2023-05-10T07:22:14;4.40;;;1.95;;
29916;SDS011;16786;49.466;11.068;2023-05-10T07:24:42;3.20;;;2.13;;
29916;SDS011;16786;49.466;11.068;2023-05-10T07:27:10;3.80;;;2.00;;
29916;SDS011;16786;49.466;11.068;2023-05-10T07:29:37;3.90;;;2.20;;
29916;SDS011;16786;49.466;11.068;2023-05-10T07:32:05;2.53;;;1.90;;
29916;SDS011;16786;49.466;11.068;2023-05-10T07:34:32;4.38;;;2.10;;
29916;SDS011;16786;49.466;11.068;2023-05-10T07:37:00;2.42;;;2.00;;
29916;SDS011;16786;49.466;11.068;2023-05-10T07:39:27;4.63;;;2.00;;
29916;SDS011;16786;49.466;11.068;2023-05-10T07:41:55;5.15;;;2.20;;
29916;SDS011;16786;49.466;11.068;2023-05-10T07:44:23;5.85;;;2.10;;
29916;SDS011;16786;49.466;11.068;2023-05-10T07:46:50;5.45;;;2.25;;
29916;SDS011;16786;49.466;11.068;2023-05-10T07:49:17;2.30;;;1.88;;
29916;SDS011;16786;49.466;11.068;2023-05-10T07:51:44;5.80;;;2.20;;
29916;SDS011;16786;49.466;11.068;2023-05-10T07:54:12;3.65;;;1.90;;
29916;SDS011;16786;49.466;11.068;2023-05-10T07:56:40;3.00;;;1.90;;
29916;SDS011;16786;49.466;11.068;2023-05-10T07:59:14;4.10;;;2.08;;
29916;SDS011;16786;49.466;11.068;2023-05-10T08:01:44;3.03;;;1.95;;
29916;SDS011;16786;49.466;11.068;2023-05-10T08:04:11;3.13;;;1.73;;
29916;SDS011;16786;49.466;11.068;2023-05-10T08:06:39;2.75;;;1.85;;
29916;SDS011;16786;49.466;11.068;2023-05-10T08:09:08;4.13;;;2.20;;
29916;SDS011;16786;49.466;11.068;2023-05-10T08:11:36;4.03;;;2.60;;
29916;SDS011;16786;49.466;11.068;2023-05-10T08:14:03;5.25;;;1.95;;
29916;SDS011;16786;49.466;11.068;2023-05-10T08:16:30;4.68;;;2.75;;
29916;SDS011;16786;49.466;11.068;2023-05-10T08:18:59;3.97;;;2.20;;
29916;SDS011;16786;49.466;11.068;2023-05-10T08:21:26;4.90;;;2.25;;
29916;SDS011;16786;49.466;11.068;2023-05-10T08:23:53;6.72;;;2.67;;
29916;SDS011;16786;49.466;11.068;2023-05-10T08:26:21;4.10;;;2.25;;
29916;SDS011;16786;49.466;11.068;2023-05-10T08:28:48;2.85;;;2.45;;
29916;SDS011;16786;49.466;11.068;2023-05-10T08:31:16;2.97;;;2.30;;
29916;SDS011;16786;49.466;11.068;2023-05-10T08:33:44;3.35;;;2.40;;
29916;SDS011;16786;49.466;11.068;2023-05-10T08:36:12;3.35;;;2.33;;
29916;SDS011;16786;49.466;11.068;2023-05-10T08:38:40;4.38;;;2.38;;
29916;SDS011;16786;49.466;11.068;2023-05-10T08:41:08;4.32;;;2.28;;
29916;SDS011;16786;49.466;11.068;2023-05-10T08:43:36;3.35;;;2.45;;
29916;SDS011;16786;49.466;11.068;2023-05-10T08:46:05;3.50;;;2.60;;
29916;SDS011;16786;49.466;11.068;2023-05-10T08:48:34;3.97;;;2.50;;
29916;SDS011;16786;49.466;11.068;2023-05-10T08:51:02;3.80;;;2.67;;
29916;SDS011;16786;49.466;11.068;2023-05-10T08:53:30;3.20;;;2.30;;
29916;SDS011;16786;49.466;11.068;2023-05-10T08:56:02;3.60;;;2.53;;
29916;SDS011;16786;49.466;11.068;2023-05-10T08:58:30;3.47;;;2.60;;
29916;SDS011;16786;49.466;11.068;2023-05-10T09:00:58;3.15;;;2.22;;
29916;SDS011;16786;49.466;11.068;2023-05-10T09:03:27;3.72;;;2.72;;
29916;SDS011;16786;49.466;11.068;2023-05-10T09:05:55;3.75;;;2.80;;
29916;SDS011;16786;49.466;11.068;2023-05-10T09:08:25;5.55;;;2.80;;
29916;SDS011;16786;49.466;11.068;2023-05-10T09:10:56;6.13;;;2.47;;
29916;SDS011;16786;49.466;11.068;2023-05-10T09:13:23;4.22;;;2.60;;
29916;SDS011;16786;49.466;11.068;2023-05-10T09:15:52;4.55;;;2.78;;
29916;SDS011;16786;49.466;11.068;2023-05-10T09:18:20;4.15;;;2.88;;
29916;SDS011;16786;49.466;11.068;2023-05-10T09:20:48;5.85;;;3.05;;
29916;SDS011;16786;49.466;11.068;2023-05-10T09:23:15;5.38;;;3.00;;
29916;SDS011;16786;49.466;11.068;2023-05-10T09:25:42;6.10;;;3.33;;
29916;SDS011;16786;49.466;11.068;2023-05-10T09:28:10;5.78;;;3.03;;
29916;SDS011;16786;49.466;11.068;2023-05-10T09:30:38;8.68;;;3.15;;
29916;SDS011;16786;49.466;11.068;2023-05-10T09:33:06;6.07;;;3.33;;
29916;SDS011;16786;49.466;11.068;2023-05-10T09:35:33;8.38;;;3.42;;
29916;SDS011;16786;49.466;11.068;2023-05-10T09:38:01;6.75;;;3.40;;
29916;SDS011;16786;49.466;11.068;2023-05-10T09:40:30;4.88;;;2.63;;
29916;SDS011;16786;49.466;11.068;2023-05-10T09:45:35;5.43;;;3.35;;
29916;SDS011;16786;49.466;11.068;2023-05-10T09:48:04;5.28;;;3.10;;
29916;SDS011;16786;49.466;11.068;2023-05-10T09:50:32;5.47;;;2.90;;
29916;SDS011;16786;49.466;11.068;2023-05-10T09:53:01;5.97;;;2.95;;
29916;SDS011;16786;49.466;11.068;2023-05-10T09:55:43;7.57;;;3.13;;
29916;SDS011;16786;49.466;11.068;2023-05-10T09:58:13;5.45;;;2.85;;
29916;SDS011;16786;49.466;11.068;2023-05-10T10:00:45;3.63;;;2.80;;
29916;SDS011;16786;49.466;11.068;2023-05-10T10:03:15;5.70;;;3.20;;
29916;SDS011;16786;49.466;11.068;2023-05-10T10:05:43;4.47;;;2.92;;
29916;SDS011;16786;49.466;11.068;2023-05-10T10:08:13;5.05;;;2.97;;
29916;SDS011;16786;49.466;11.068;2023-05-10T10:10:42;4.68;;;2.90;;
29916;SDS011;16786;49.466;11.068;2023-05-10T10:13:13;5.35;;;3.10;;
29916;SDS011;16786;49.466;11.068;2023-05-10T10:15:41;4.35;;;3.05;;
29916;SDS011;16786;49.466;11.068;2023-05-10T10:18:13;4.20;;;2.80;;
29916;SDS011;16786;49.466;11.068;2023-05-10T10:20:44;4.80;;;3.30;;
29916;SDS011;16786;49.466;11.068;2023-05-10T10:23:12;5.50;;;3.17;;
29916;SDS011;16786;49.466;11.068;2023-05-10T10:25:42;4.13;;;3.00;;
29916;SDS011;16786;49.466;11.068;2023-05-10T10:28:25;6.85;;;3.25;;
29916;SDS011;16786;49.466;11.068;2023-05-10T10:31:11;6.55;;;3.30;;
29916;SDS011;16786;49.466;11.068;2023-05-10T10:36:32;6.30;;;3.33;;
29916;SDS011;16786;49.466;11.068;2023-05-10T10:39:12;4.22;;;3.58;;
29916;SDS011;16786;49.466;11.068;2023-05-10T10:41:50;5.30;;;3.40;;
29916;SDS011;16786;49.466;11.068;2023-05-10T10:49:42;5.28;;;3.35;;
29916;SDS011;16786;49.466;11.068;2023-05-10T10:55:07;5.43;;;3.03;;
29916;SDS011;16786;49.466;11.068;2023-05-10T10:57:43;4.97;;;3.80;;
29916;SDS011;16786;49.466;11.068;2023-05-10T11:00:19;4.05;;;3.08;;
29916;SDS011;16786;49.466;11.068;2023-05-10T11:07:56;6.13;;;3.20;;
29916;SDS011;16786;49.466;11.068;2023-05-10T11:10:25;5.22;;;3.00;;
29916;SDS011;16786;49.466;11.068;2023-05-10T11:13:03;5.00;;;3.20;;
29916;SDS011;16786;49.466;11.068;2023-05-10T11:15:38;4.78;;;3.42;;
29916;SDS011;16786;49.466;11.068;2023-05-10T11:18:18;4.90;;;3.35;;
29916;SDS011;16786;49.466;11.068;2023-05-10T11:20:57;4.97;;;3.28;;
29916;SDS011;16786;49.466;11.068;2023-05-10T11:23:30;4.97;;;3.10;;
29916;SDS011;16786;49.466;11.068;2023-05-10T11:25:59;3.63;;;3.10;;
29916;SDS011;16786;49.466;11.068;2023-05-10T11:28:27;4.47;;;3.03;;
29916;SDS011;16786;49.466;11.068;2023-05-10T11:30:55;4.32;;;3.13;;
29916;SDS011;16786;49.466;11.068;2023-05-10T11:33:23;7.10;;;3.70;;
29916;SDS011;16786;49.466;11.068;2023-05-10T11:35:50;4.60;;;3.30;;
29916;SDS011;16786;49.466;11.068;2023-05-10T11:38:17;4.13;;;3.30;;
29916;SDS011;16786;49.466;11.068;2023-05-10T11:40:44;4.05;;;3.05;;
29916;SDS011;16786;49.466;11.068;2023-05-10T11:43:12;4.90;;;3.20;;
29916;SDS011;16786;49.466;11.068;2023-05-10T11:45:40;6.53;;;3.55;;
29916;SDS011;16786;49.466;11.068;2023-05-10T11:48:08;3.33;;;2.90;;
29916;SDS011;16786;49.466;11.068;2023-05-10T11:50:37;6.43;;;3.63;;
29916;SDS011;16786;49.466;11.068;2023-05-10T11:53:04;3.97;;;3.30;;
29916;SDS011;16786;49.466;11.068;2023-05-10T11:55:33;4.38;;;3.30;;
29916;SDS011;16786;49.466;11.068;2023-05-10T11:58:01;4.68;;;3.25;;
29916;SDS011;16786;49.466;11.068;2023-05-10T12:00:29;4.57;;;3.47;;
29916;SDS011;16786;49.466;11.068;2023-05-10T12:02:57;4.95;;;3.47;;
29916;SDS011;16786;49.466;11.068;2023-05-10T12:05:27;3.80;;;3.38;;
29916;SDS011;16786;49.466;11.068;2023-05-10T12:08:11;4.25;;;3.58;;
29916;SDS011;16786;49.466;11.068;2023-05-10T12:10:39;4.07;;;3.67;;
29916;SDS011;16786;49.466;11.068;2023-05-10T12:13:13;8.40;;;3.88;;
29916;SDS011;16786;49.466;11.068;2023-05-10T12:15:41;3.95;;;3.10;;
29916;SDS011;16786;49.466;11.068;2023-05-10T12:18:10;3.70;;;3.30;;
29916;SDS011;16786;49.466;11.068;2023-05-10T12:20:38;4.30;;;3.60;;
29916;SDS011;16786;49.466;11.068;2023-05-10T12:23:08;4.50;;;3.38;;
29916;SDS011;16786;49.466;11.068;2023-05-10T12:25:37;4.22;;;3.50;;
29916;SDS011;16786;49.466;11.068;2023-05-10T12:28:06;4.20;;;3.80;;
29916;SDS011;16786;49.466;11.068;2023-05-10T12:30:35;4.03;;;3.63;;
29916;SDS011;16786;49.466;11.068;2023-05-10T12:33:12;5.03;;;4.18;;
29916;SDS011;16786;49.466;11.068;2023-05-10T12:35:47;6.88;;;4.28;;
29916;SDS011;16786;49.466;11.068;2023-05-10T12:38:38;5.05;;;3.58;;
29916;SDS011;16786;49.466;11.068;2023-05-10T12:41:10;4.30;;;3.70;;
29916;SDS011;16786;49.466;11.068;2023-05-10T12:43:39;8.43;;;3.50;;
29916;SDS011;16786;49.466;11.068;2023-05-10T12:46:11;4.43;;;3.50;;
29916;SDS011;16786;49.466;11.068;2023-05-10T12:48:40;4.68;;;3.50;;
29916;SDS011;16786;49.466;11.068;2023-05-10T12:51:08;5.40;;;3.60;;
29916;SDS011;16786;49.466;11.068;2023-05-10T12:53:38;3.90;;;3.50;;
29916;SDS011;16786;49.466;11.068;2023-05-10T12:58:37;4.75;;;3.60;;
29916;SDS011;16786;49.466;11.068;2023-05-10T13:01:05;4.97;;;3.53;;
29916;SDS011;16786;49.466;11.068;2023-05-10T13:03:32;5.97;;;3.08;;
29916;SDS011;16786;49.466;11.068;2023-05-10T13:06:00;4.60;;;3.40;;
29916;SDS011;16786;49.466;11.068;2023-05-10T13:08:27;4.18;;;3.20;;
29916;SDS011;16786;49.466;11.068;2023-05-10T13:13:26;4.35;;;3.70;;
29916;SDS011;16786;49.466;11.068;2023-05-10T13:15:54;5.57;;;3.50;;
29916;SDS011;16786;49.466;11.068;2023-05-10T13:18:21;6.32;;;4.10;;
29916;SDS011;16786;49.466;11.068;2023-05-10T13:20:48;4.47;;;3.30;;
29916;SDS011;16786;49.466;11.068;2023-05-10T13:23:16;4.38;;;3.70;;
29916;SDS011;16786;49.466;11.068;2023-05-10T13:25:43;4.60;;;3.28;;
29916;SDS011;16786;49.466;11.068;2023-05-10T13:28:10;3.22;;;2.70;;
29916;SDS011;16786;49.466;11.068;2023-05-10T13:30:37;4.53;;;3.10;;
29916;SDS011;16786;49.466;11.068;2023-05-10T13:33:05;9.27;;;3.70;;
29916;SDS011;16786;49.466;11.068;2023-05-10T13:35:32;6.03;;;3.10;;
29916;SDS011;16786;49.466;11.068;2023-05-10T13:37:59;6.13;;;3.22;;
29916;SDS011;16786;49.466;11.068;2023-05-10T13:40:26;6.43;;;3.40;;
29916;SDS011;16786;49.466;11.068;2023-05-10T13:42:54;3.38;;;2.90;;
29916;SDS011;16786;49.466;11.068;2023-05-10T13:45:21;4.47;;;2.90;;
29916;SDS011;16786;49.466;11.068;2023-05-10T13:47:49;5.25;;;3.08;;
29916;SDS011;16786;49.466;11.068;2023-05-10T13:50:16;4.43;;;2.70;;
29916;SDS011;16786;49.466;11.068;2023-05-10T13:52:44;4.25;;;2.78;;
29916;SDS011;16786;49.466;11.068;2023-05-10T13:55:12;4.82;;;3.10;;
29916;SDS011;16786;49.466;11.068;2023-05-10T13:57:39;5.28;;;2.92;;
29916;SDS011;16786;49.466;11.068;2023-05-10T14:00:07;6.65;;;3.42;;
29916;SDS011;16786;49.466;11.068;2023-05-10T14:02:35;4.45;;;3.13;;
29916;SDS011;16786;49.466;11.068;2023-05-10T14:05:02;6.00;;;3.22;;
29916;SDS011;16786;49.466;11.068;2023-05-10T14:07:30;5.60;;;3.60;;
29916;SDS011;16786;49.466;11.068;2023-05-10T14:09:57;5.60;;;3.50;;
29916;SDS011;16786;49.466;11.068;2023-05-10T14:12:24;4.68;;;3.40;;
29916;SDS011;16786;49.466;11.068;2023-05-10T14:14:52;5.68;;;3.38;;
29916;SDS011;16786;49.466;11.068;2023-05-10T14:17:19;4.28;;;3.35;;
29916;SDS011;16786;49.466;11.068;2023-05-10T14:19:46;4.85;;;3.20;;
29916;SDS011;16786;49.466;11.068;2023-05-10T14:22:14;3.80;;;3.33;;
29916;SDS011;16786;49.466;11.068;2023-05-10T14:24:41;6.80;;;3.50;;
29916;SDS011;16786;49.466;11.068;2023-05-10T14:27:09;4.35;;;3.50;;
29916;SDS011;16786;49.466;11.068;2023-05-10T14:29:37;4.35;;;3.13;;
29916;SDS011;16786;49.466;11.068;2023-05-10T14:32:04;3.20;;;2.90;;
29916;SDS011;16786;49.466;11.068;2023-05-10T14:34:32;3.55;;;2.80;;
29916;SDS011;16786;49.466;11.068;2023-05-10T14:36:59;3.80;;;3.08;;
29916;SDS011;16786;49.466;11.068;2023-05-10T14:39:27;4.65;;;3.00;;
29916;SDS011;16786;49.466;11.068;2023-05-10T14:41:58;4.10;;;3.00;;
29916;SDS011;16786;49.466;11.068;2023-05-10T14:44:25;5.47;;;3.00;;
29916;SDS011;16786;49.466;11.068;2023-05-10T14:46:52;6.63;;;3.20;;
29916;SDS011;16786;49.466;11.068;2023-05-10T14:49:20;3.80;;;3.00;;
29916;SDS011;16786;49.466;11.068;2023-05-10T14:51:49;5.15;;;3.22;;
29916;SDS011;16786;49.466;11.068;2023-05-10T14:54:16;3.88;;;3.20;;
29916;SDS011;16786;49.466;11.068;2023-05-10T14:56:43;4.68;;;3.35;;
29916;SDS011;16786;49.466;11.068;2023-05-10T14:59:11;3.80;;;2.80;;
29916;SDS011;16786;49.466;11.068;2023-05-10T15:01:39;4.13;;;3.38;;
29916;SDS011;16786;49.466;11.068;2023-05-10T15:04:09;5.32;;;3.13;;
29916;SDS011;16786;49.466;11.068;2023-05-10T15:06:36;3.90;;;3.10;;
29916;SDS011;16786;49.466;11.068;2023-05-10T15:09:04;4.25;;;3.00;;
29916;SDS011;16786;49.466;11.068;2023-05-10T15:11:31;3.78;;;3.00;;
29916;SDS011;16786;49.466;11.068;2023-05-10T15:13:58;5.13;;;3.00;;
29916;SDS011;16786;49.466;11.068;2023-05-10T15:16:26;4.43;;;2.78;;
29916;SDS011;16786;49.466;11.068;2023-05-10T15:18:53;3.25;;;2.70;;
29916;SDS011;16786;49.466;11.068;2023-05-10T15:21:20;2.78;;;2.47;;